Time;durP1;ratioP1;P1;durP2;ratioP2;P2;SDS_P1;SDS_P2;PMS_P1;PMS_P2;Temp;Humidity;BMP_temperature;BMP_pressure;BME280_temperature;BME280_humidity;BME280_pressure;Samples;Min_cycle;Max_cycle;Signal;HPM_P1;HPM_P2
2023/01/04 00:00:17;;;;;;;14.90;9.10;;;;;;;5.04;77.25;97878.19;105405;1287;24531;-80
2023/01/04 00:03:11;;;;;;;12.60;9.00;;;;;;;5.00;77.17;97876.33;105380;1287;27383;-79
2023/01/04 00:05:42;;;;;;;12.30;7.90;;;;;;;4.93;77.25;97881.59;105390;1284;22471;-80
2023/01/04 00:08:13;;;;;;;9.80;7.60;;;;;;;4.85;77.49;97875.65;105395;1297;22458;-79
2023/01/04 00:10:44;;;;;;;11.30;8.10;;;;;;;4.83;77.41;97876.22;105376;1302;22501;-79
2023/01/04 00:13:15;;;;;;;12.50;8.10;;;;;;;4.81;77.57;97874.87;105420;1296;24293;-80
2023/01/04 00:15:46;;;;;;;10.40;8.20;;;;;;;4.77;77.68;97871.63;105606;1275;22457;-79
2023/01/04 00:18:18;;;;;;;14.10;10.00;;;;;;;4.79;77.71;97873.83;105538;1289;22446;-80
2023/01/04 00:20:49;;;;;;;11.40;9.40;;;;;;;4.81;77.81;97879.52;105580;1279;22441;-79
2023/01/04 00:23:22;;;;;;;11.60;9.00;;;;;;;4.86;77.89;97878.51;105389;1302;35301;-79
2023/01/04 00:25:53;;;;;;;12.10;8.70;;;;;;;4.89;77.98;97876.02;105237;1304;22655;-79
2023/01/04 00:28:24;;;;;;;10.50;7.50;;;;;;;4.89;77.84;97872.41;105313;1290;22603;-79
2023/01/04 00:30:55;;;;;;;10.00;6.80;;;;;;;4.90;77.92;97871.40;105315;1281;22475;-79
2023/01/04 00:33:26;;;;;;;9.90;7.20;;;;;;;4.92;77.84;97876.04;105246;1304;31678;-79
2023/01/04 00:36:01;;;;;;;11.50;7.70;;;;;;;4.92;78.03;97871.48;105181;1304;22514;-80
2023/01/04 00:38:32;;;;;;;10.30;7.50;;;;;;;4.87;77.60;97875.51;105162;1296;23215;-79
2023/01/04 00:41:05;;;;;;;10.50;7.40;;;;;;;4.84;77.69;97876.30;105227;1304;25229;-79
2023/01/04 00:43:38;;;;;;;8.60;6.30;;;;;;;4.83;77.81;97885.39;105259;1294;25361;-79
2023/01/04 00:46:10;;;;;;;15.20;9.20;;;;;;;4.71;77.72;97886.09;105395;1302;24472;-79
2023/01/04 00:48:41;;;;;;;12.90;9.50;;;;;;;4.55;77.90;97884.95;105435;1292;22470;-79
2023/01/04 00:51:20;;;;;;;11.70;8.00;;;;;;;4.41;78.44;97884.92;105408;1294;22616;-79
2023/01/04 00:53:51;;;;;;;13.60;8.10;;;;;;;4.29;78.83;97881.65;105361;1287;25585;-79
2023/01/04 00:56:22;;;;;;;12.70;8.80;;;;;;;4.27;79.33;97881.14;105372;1302;22478;-79
2023/01/04 00:58:57;;;;;;;12.40;9.40;;;;;;;4.28;79.42;97879.44;105332;1302;23957;-79
2023/01/04 01:01:34;;;;;;;12.20;8.90;;;;;;;4.33;79.55;97878.64;105206;1294;22471;-80
2023/01/04 01:04:05;;;;;;;13.10;9.00;;;;;;;4.42;79.53;97878.91;105284;1280;22463;-80
2023/01/04 01:06:36;;;;;;;12.90;8.90;;;;;;;4.44;79.49;97881.20;105319;1281;24198;-80
2023/01/04 01:09:07;;;;;;;11.10;8.10;;;;;;;4.49;79.37;97877.20;105232;1288;22464;-80
2023/01/04 01:11:39;;;;;;;10.70;7.80;;;;;;;4.52;79.28;97875.92;105265;1288;22728;-80
2023/01/04 01:14:13;;;;;;;12.40;9.30;;;;;;;4.49;79.37;97873.22;105209;1304;25721;-79
2023/01/04 01:16:45;;;;;;;13.50;8.40;;;;;;;4.45;79.31;97872.71;105334;1283;22464;-79
2023/01/04 01:19:16;;;;;;;12.00;8.30;;;;;;;4.31;79.22;97871.66;105190;1305;22488;-79
2023/01/04 01:21:47;;;;;;;10.80;7.90;;;;;;;4.24;79.43;97869.61;105356;1288;22853;-79
2023/01/04 01:24:21;;;;;;;14.20;8.10;;;;;;;4.23;79.25;97865.96;105232;1304;31548;-79
2023/01/04 01:26:55;;;;;;;12.70;8.90;;;;;;;4.19;79.15;97866.40;105389;1302;24071;-79
2023/01/04 01:29:26;;;;;;;13.90;9.40;;;;;;;4.10;79.07;97863.77;105364;1303;22529;-79
2023/01/04 01:31:57;;;;;;;14.40;9.70;;;;;;;3.99;78.92;97863.84;105213;1291;22478;-79
2023/01/04 01:34:28;;;;;;;12.70;8.50;;;;;;;3.88;79.26;97860.46;105333;1286;29098;-79
2023/01/04 01:36:59;;;;;;;11.00;8.30;;;;;;;3.80;79.50;97859.88;105553;1279;22543;-78
2023/01/04 01:39:31;;;;;;;10.60;8.10;;;;;;;3.74;79.72;97856.05;105549;1295;22477;-78
2023/01/04 01:42:02;;;;;;;13.80;8.50;;;;;;;3.69;80.10;97855.77;105550;1294;22458;-78
2023/01/04 01:44:57;;;;;;;11.30;8.00;;;;;;;3.69;80.38;97858.61;105593;1300;24342;-78
2023/01/04 01:47:35;;;;;;;11.70;7.60;;;;;;;3.62;80.23;97857.31;105587;1295;22684;-78
2023/01/04 01:50:16;;;;;;;11.90;7.80;;;;;;;3.47;80.60;97851.86;105513;1294;23979;-78
2023/01/04 01:52:49;;;;;;;10.30;7.40;;;;;;;3.45;80.82;97850.98;105369;1279;22467;-78
2023/01/04 01:55:23;;;;;;;12.00;8.30;;;;;;;3.34;80.34;97848.01;105255;1288;27368;-79
2023/01/04 01:57:55;;;;;;;14.40;10.00;;;;;;;3.22;80.58;97848.68;105297;1303;22469;-78
2023/01/04 02:00:28;;;;;;;14.10;9.50;;;;;;;3.20;80.96;97842.83;105283;1290;22773;-79
2023/01/04 02:03:13;;;;;;;12.20;8.90;;;;;;;3.25;81.05;97839.10;105243;1284;29454;-79
2023/01/04 02:05:46;;;;;;;11.00;7.70;;;;;;;3.24;80.81;97841.48;105425;1286;22430;-80
2023/01/04 02:08:22;;;;;;;12.10;8.00;;;;;;;3.24;80.68;97840.66;105428;1302;24601;-79
2023/01/04 02:10:53;;;;;;;11.80;6.90;;;;;;;3.17;80.40;97840.65;105356;1293;22498;-79
2023/01/04 02:14:25;;;;;;;12.10;8.10;;;;;;;3.06;80.43;97845.67;105360;1302;30015;-79
2023/01/04 02:16:32;;;;;;;11.10;7.90;;;;;;;2.95;80.38;97844.05;105389;1302;22478;-79
2023/01/04 02:19:17;;;;;;;12.10;7.40;;;;;;;2.92;80.36;97845.85;105386;1302;22944;-78
2023/01/04 02:21:59;;;;;;;12.50;8.20;;;;;;;2.70;79.75;97845.89;105404;1288;25374;-79
2023/01/04 02:24:47;;;;;;;14.00;8.90;;;;;;;2.33;79.91;97854.46;105332;1290;27115;-79
2023/01/04 02:27:36;;;;;;;13.40;7.60;;;;;;;2.19;80.56;97853.27;105338;1302;22478;-79
2023/01/04 02:30:37;;;;;;;12.40;7.90;;;;;;;2.01;81.26;97852.79;105368;1302;22478;-79
2023/01/04 02:33:19;;;;;;;14.20;8.60;;;;;;;1.88;81.68;97855.55;105356;1281;22489;-79
2023/01/04 02:35:59;;;;;;;14.30;8.60;;;;;;;1.86;83.04;97852.53;105383;1294;22512;-78
2023/01/04 02:38:38;;;;;;;12.30;8.30;;;;;;;1.90;83.84;97856.13;105393;1294;22474;-78
2023/01/04 02:41:19;;;;;;;14.30;8.60;;;;;;;1.94;84.19;97856.47;105338;1302;22473;-79
2023/01/04 02:46:49;;;;;;;13.00;8.80;;;;;;;1.95;85.26;97846.02;105260;1284;23845;-79
2023/01/04 02:52:12;;;;;;;14.50;9.80;;;;;;;2.01;85.32;97837.89;105259;1304;22483;-79
2023/01/04 02:54:47;;;;;;;15.50;10.40;;;;;;;2.03;85.27;97839.15;105283;1303;50268;-79
2023/01/04 02:57:50;;;;;;;14.90;10.00;;;;;;;2.10;85.29;97839.10;105355;1288;22454;-79
2023/01/04 03:00:34;;;;;;;14.80;10.10;;;;;;;2.16;85.04;97842.55;105447;1288;24505;-79
2023/01/04 03:06:17;;;;;;;;;;;;;;;2.04;84.37;97829.58;105403;1302;24076;-79
2023/01/04 03:08:56;;;;;;;14.00;9.40;;;;;;;1.96;84.31;97828.04;105341;1302;22500;-79
2023/01/04 03:14:28;;;;;;;13.30;9.50;;;;;;;1.97;84.41;97825.95;105286;1295;22462;-79
2023/01/04 03:17:00;;;;;;;16.60;10.80;;;;;;;1.99;84.52;97823.33;105378;1295;22585;-79
2023/01/04 03:19:54;;;;;;;14.20;10.40;;;;;;;2.00;84.37;97823.27;105432;1297;22657;-79
2023/01/04 03:37:14;;;;;;;17.30;11.80;;;;;;;1.79;84.94;97795.56;105163;1293;24316;-79
2023/01/04 03:48:50;;;;;;;14.00;10.30;;;;;;;1.86;84.82;97794.33;105270;1287;24889;-82
2023/01/04 03:51:26;;;;;;;16.40;11.90;;;;;;;1.82;84.57;97792.94;105275;1293;24996;-79
2023/01/04 03:54:02;;;;;;;21.00;12.40;;;;;;;1.77;85.07;97789.73;105220;1280;22448;-80
2023/01/04 03:56:41;;;;;;;17.30;12.40;;;;;;;1.82;85.33;97789.34;105322;1285;22696;-80
2023/01/04 03:59:13;;;;;;;18.80;12.90;;;;;;;1.87;85.35;97794.09;105321;1303;22497;-80
2023/01/04 04:01:45;;;;;;;18.40;12.60;;;;;;;1.91;85.18;97794.27;105284;1303;24832;-80
2023/01/04 04:09:53;;;;;;;18.80;12.30;;;;;;;2.16;86.02;97791.64;105325;1288;23269;-79
2023/01/04 04:12:24;;;;;;;19.90;13.90;;;;;;;2.18;85.68;97787.45;105320;1285;22477;-79
2023/01/04 04:14:56;;;;;;;21.30;13.80;;;;;;;2.19;85.85;97791.41;105293;1288;22451;-80
2023/01/04 04:17:30;;;;;;;20.10;12.20;;;;;;;2.25;85.98;97790.48;105271;1288;22521;-80
2023/01/04 04:20:02;;;;;;;18.70;13.10;;;;;;;2.29;85.99;97784.73;105284;1287;22484;-79
2023/01/04 04:22:34;;;;;;;21.10;14.40;;;;;;;2.31;86.02;97790.52;105238;1280;24380;-79
2023/01/04 04:25:06;;;;;;;17.00;11.50;;;;;;;2.33;86.02;97791.38;105227;1280;22472;-79
2023/01/04 04:27:37;;;;;;;18.50;13.30;;;;;;;2.29;86.12;97787.11;105364;1287;22688;-79
2023/01/04 04:30:11;;;;;;;19.80;12.40;;;;;;;2.23;85.91;97783.58;105254;1287;22480;-80
2023/01/04 04:32:42;;;;;;;16.60;10.80;;;;;;;2.17;86.32;97781.86;105308;1287;22475;-79
2023/01/04 04:35:13;;;;;;;18.30;12.80;;;;;;;2.15;86.82;97781.46;105219;1287;22594;-79
2023/01/04 04:37:46;;;;;;;20.30;13.00;;;;;;;2.12;86.88;97778.91;105253;1287;22518;-79
2023/01/04 04:43:11;;;;;;;17.40;12.30;;;;;;;2.01;86.70;97770.30;105270;1278;24256;-80
2023/01/04 04:45:44;;;;;;;18.50;12.70;;;;;;;1.96;86.78;97772.92;105226;1293;22451;-80
2023/01/04 04:48:15;;;;;;;18.80;13.30;;;;;;;1.93;86.87;97772.10;105259;1288;24234;-79
2023/01/04 04:50:46;;;;;;;18.40;12.70;;;;;;;1.91;87.01;97769.61;105254;1281;22684;-79
2023/01/04 04:53:17;;;;;;;16.80;12.50;;;;;;;1.88;87.15;97772.77;105210;1288;24947;-79
2023/01/04 04:55:50;;;;;;;21.10;13.70;;;;;;;1.88;87.23;97773.09;105316;1278;22688;-79
2023/01/04 04:58:23;;;;;;;20.10;13.30;;;;;;;1.88;87.46;97775.84;105313;1279;22482;-79
2023/01/04 05:00:54;;;;;;;15.80;11.60;;;;;;;1.89;87.31;97776.59;105349;1285;22464;-79
2023/01/04 05:03:25;;;;;;;19.00;12.80;;;;;;;1.85;86.95;97778.67;105194;1285;41123;-80
2023/01/04 05:06:00;;;;;;;18.10;12.50;;;;;;;1.76;86.62;97779.39;105162;1288;22594;-79
2023/01/04 05:08:33;;;;;;;18.50;12.50;;;;;;;1.73;86.77;97776.84;105204;1280;24240;-79
2023/01/04 05:11:12;;;;;;;18.00;12.50;;;;;;;1.69;86.57;97773.84;105126;1288;22480;-79
2023/01/04 05:13:44;;;;;;;18.20;12.70;;;;;;;1.66;86.63;97774.05;105059;1288;41140;-80
2023/01/04 05:16:15;;;;;;;19.70;12.80;;;;;;;1.65;86.60;97766.23;105141;1287;22545;-79
2023/01/04 05:18:46;;;;;;;15.80;11.90;;;;;;;1.67;86.85;97764.25;105113;1286;22484;-79
2023/01/04 05:21:17;;;;;;;17.50;12.20;;;;;;;1.68;87.12;97765.07;105185;1286;22886;-79
2023/01/04 05:23:48;;;;;;;17.10;11.80;;;;;;;1.67;86.79;97763.12;105118;1287;24948;-79
2023/01/04 05:26:19;;;;;;;19.20;13.50;;;;;;;1.65;87.07;97764.44;105154;1288;22453;-79
2023/01/04 05:28:50;;;;;;;17.90;12.40;;;;;;;1.62;87.08;97761.49;105185;1292;22512;-79
2023/01/04 05:31:22;;;;;;;18.40;12.50;;;;;;;1.58;87.17;97755.54;105151;1280;22520;-79
2023/01/04 05:33:53;;;;;;;20.10;13.50;;;;;;;1.56;87.14;97749.92;105073;1281;45901;-79
2023/01/04 05:36:24;;;;;;;19.30;12.90;;;;;;;1.56;87.21;97739.80;105113;1280;23273;-79
2023/01/04 05:38:55;;;;;;;18.70;12.10;;;;;;;1.54;87.27;97734.46;105169;1288;24232;-79
2023/01/04 05:44:17;;;;;;;16.20;11.50;;;;;;;1.48;86.60;97727.89;105094;1294;58560;-80
2023/01/04 05:46:49;;;;;;;15.80;11.70;;;;;;;1.46;86.70;97728.05;105136;1288;25296;-80
2023/01/04 05:49:21;;;;;;;16.70;11.40;;;;;;;1.42;86.63;97725.05;105167;1285;22624;-80
2023/01/04 05:51:54;;;;;;;17.90;11.40;;;;;;;1.41;87.00;97722.04;105173;1291;23311;-80
2023/01/04 05:54:25;;;;;;;15.50;10.60;;;;;;;1.44;87.48;97712.11;105243;1287;35851;-80
2023/01/04 05:56:57;;;;;;;14.00;10.50;;;;;;;1.45;87.41;97713.37;105158;1288;22634;-80
2023/01/04 05:59:29;;;;;;;14.40;10.40;;;;;;;1.45;87.39;97708.66;105147;1290;22727;-80
2023/01/04 06:02:00;;;;;;;13.90;10.00;;;;;;;1.44;87.51;97711.87;105238;1288;22723;-80
2023/01/04 06:04:32;;;;;;;14.20;9.20;;;;;;;1.42;87.43;97714.92;105106;1293;39462;-80
2023/01/04 06:07:03;;;;;;;14.30;10.30;;;;;;;1.43;87.77;97710.83;105197;1305;22551;-80
2023/01/04 06:09:34;;;;;;;16.30;11.40;;;;;;;1.44;87.91;97705.92;105223;1304;22929;-80
2023/01/04 06:12:06;;;;;;;17.10;10.90;;;;;;;1.45;87.74;97704.68;105175;1305;22462;-80
2023/01/04 06:14:37;;;;;;;16.70;10.90;;;;;;;1.43;87.65;97710.99;105214;1303;22555;-79
2023/01/04 06:17:09;;;;;;;16.70;11.80;;;;;;;1.39;87.49;97717.94;105214;1290;22473;-80
2023/01/04 06:19:40;;;;;;;15.80;11.20;;;;;;;1.34;87.49;97715.79;105145;1295;25273;-80
2023/01/04 06:22:12;;;;;;;16.80;10.10;;;;;;;1.30;87.44;97715.05;105646;1290;22479;-79
2023/01/04 06:24:43;;;;;;;14.30;10.10;;;;;;;1.27;87.38;97712.81;105142;1281;24802;-80
2023/01/04 06:27:16;;;;;;;15.10;9.80;;;;;;;1.26;87.11;97707.97;105201;1305;24138;-80
2023/01/04 06:29:51;;;;;;;16.00;10.30;;;;;;;1.23;87.07;97702.61;105251;1286;22436;-79
2023/01/04 06:32:22;;;;;;;14.70;10.20;;;;;;;1.21;86.93;97702.61;105187;1286;23300;-79
2023/01/04 06:34:52;;;;;;;15.10;9.40;;;;;;;1.18;86.82;97705.77;105125;1303;24959;-82
2023/01/04 06:37:23;;;;;;;15.30;10.40;;;;;;;1.17;87.14;97708.86;105106;1293;24463;-80
2023/01/04 06:39:54;;;;;;;16.90;10.70;;;;;;;1.14;87.00;97710.23;105283;1296;22744;-80
2023/01/04 06:45:15;;;;;;;16.70;11.40;;;;;;;0.99;87.04;97704.23;105233;1293;41155;-80
2023/01/04 06:47:46;;;;;;;14.50;10.70;;;;;;;0.99;87.02;97704.28;105088;1302;22464;-81
2023/01/04 06:50:18;;;;;;;16.40;10.60;;;;;;;1.02;87.33;97703.63;105188;1286;22500;-80
2023/01/04 06:52:49;;;;;;;15.40;9.80;;;;;;;1.06;87.25;97701.88;105212;1278;25919;-79
2023/01/04 06:55:20;;;;;;;14.30;9.20;;;;;;;1.11;87.28;97698.23;105282;1302;22666;-80
2023/01/04 06:57:52;;;;;;;13.60;8.60;;;;;;;1.13;87.12;97701.80;105257;1285;22474;-79
2023/01/04 07:00:24;;;;;;;14.80;9.00;;;;;;;1.17;87.13;97696.27;105322;1292;25349;-81
2023/01/04 07:02:55;;;;;;;15.10;9.60;;;;;;;1.23;86.99;97686.54;105281;1303;22522;-79
2023/01/04 07:05:26;;;;;;;12.70;8.30;;;;;;;1.26;86.76;97675.39;105255;1293;22907;-78
2023/01/04 07:07:59;;;;;;;11.20;7.40;;;;;;;1.28;86.65;97676.14;105395;1287;22588;-80
2023/01/04 07:10:31;;;;;;;11.10;6.40;;;;;;;1.35;86.52;97679.50;105317;1278;22936;-79
2023/01/04 07:13:02;;;;;;;10.10;6.40;;;;;;;1.68;86.77;97673.98;105212;1300;22510;-79
2023/01/04 07:15:33;;;;;;;10.10;4.60;;;;;;;2.17;86.22;97676.79;105174;1290;25145;-79
2023/01/04 07:18:05;;;;;;;10.00;4.70;;;;;;;2.66;85.27;97673.85;105187;1305;24387;-80
2023/01/04 07:20:36;;;;;;;11.10;7.50;;;;;;;3.04;83.94;97671.05;105161;1281;23871;-80
2023/01/04 07:23:08;;;;;;;9.80;6.40;;;;;;;3.41;83.17;97665.33;105186;1293;22462;-78
2023/01/04 07:25:39;;;;;;;10.10;6.70;;;;;;;3.85;82.58;97670.27;105222;1287;22496;-79
2023/01/04 07:28:10;;;;;;;8.90;6.10;;;;;;;4.21;81.43;97669.92;105210;1292;22556;-79
2023/01/04 07:30:41;;;;;;;10.30;6.50;;;;;;;4.35;79.97;97675.37;105228;1286;22605;-79
2023/01/04 07:33:12;;;;;;;7.70;5.50;;;;;;;4.50;78.99;97669.10;105236;1286;27286;-80
2023/01/04 07:35:43;;;;;;;9.50;6.10;;;;;;;4.50;77.33;97667.23;105198;1295;23935;-80
2023/01/04 07:38:14;;;;;;;7.90;5.50;;;;;;;4.43;76.64;97673.67;105243;1291;22464;-80
2023/01/04 07:40:45;;;;;;;9.00;6.20;;;;;;;4.54;76.17;97673.66;105194;1293;22484;-81
2023/01/04 07:43:16;;;;;;;6.80;4.90;;;;;;;4.66;75.92;97670.66;105073;1306;24898;-81
2023/01/04 07:45:47;;;;;;;7.10;4.80;;;;;;;4.83;75.07;97662.09;105706;1303;23363;-81
2023/01/04 07:48:18;;;;;;;10.20;5.50;;;;;;;4.82;74.07;97661.86;105726;1284;22534;-80
2023/01/04 07:50:50;;;;;;;7.40;4.80;;;;;;;4.73;73.45;97660.82;105241;1287;24201;-81
2023/01/04 07:53:21;;;;;;;8.50;5.70;;;;;;;4.60;72.98;97659.43;105295;1302;29222;-80
2023/01/04 07:55:58;;;;;;;6.30;4.20;;;;;;;4.58;73.14;97653.36;105302;1284;22461;-81
2023/01/04 07:58:33;;;;;;;9.80;4.90;;;;;;;4.46;72.27;97653.77;105790;1278;24413;-80
2023/01/04 08:01:13;;;;;;;8.80;4.50;;;;;;;4.34;72.22;97651.72;105298;1291;22447;-79
2023/01/04 08:03:46;;;;;;;6.10;4.10;;;;;;;4.20;72.54;97656.69;105238;1291;56137;-80
2023/01/04 08:06:21;;;;;;;9.60;6.30;;;;;;;4.17;73.13;97657.27;105334;1302;25426;-81
2023/01/04 08:08:52;;;;;;;8.90;5.10;;;;;;;4.30;73.52;97654.08;105657;1301;23807;-82
2023/01/04 08:11:23;;;;;;;9.20;5.70;;;;;;;4.31;72.95;97653.42;105607;1295;22996;-80
2023/01/04 08:13:54;;;;;;;9.30;5.70;;;;;;;4.40;73.29;97657.61;105661;1306;24356;-80
2023/01/04 08:16:30;;;;;;;8.60;5.50;;;;;;;4.43;73.00;97659.92;105646;1292;23086;-82
2023/01/04 08:19:03;;;;;;;11.40;6.10;;;;;;;4.45;73.21;97656.31;105687;1293;22594;-80
2023/01/04 08:21:36;;;;;;;8.10;5.40;;;;;;;4.35;72.63;97648.59;105395;1293;25262;-81
2023/01/04 08:24:09;;;;;;;8.90;5.60;;;;;;;4.23;72.52;97647.70;105616;1293;22470;-81
2023/01/04 08:26:40;;;;;;;10.00;5.70;;;;;;;4.16;72.60;97639.67;105628;1303;22472;-82
2023/01/04 08:29:13;;;;;;;9.60;5.60;;;;;;;4.08;72.47;97641.55;105649;1299;24124;-80
2023/01/04 08:31:44;;;;;;;9.90;6.60;;;;;;;3.95;72.54;97638.90;105694;1303;22684;-81
2023/01/04 08:34:18;;;;;;;9.90;5.90;;;;;;;3.90;73.09;97638.66;105687;1299;22555;-80
2023/01/04 08:36:52;;;;;;;8.30;4.40;;;;;;;3.97;73.35;97637.13;105668;1291;22492;-80
2023/01/04 08:39:23;;;;;;;9.20;6.30;;;;;;;3.95;73.41;97641.59;105582;1304;22462;-80
2023/01/04 08:41:53;;;;;;;9.80;6.30;;;;;;;4.03;73.67;97638.59;105606;1295;22474;-79
2023/01/04 08:44:26;;;;;;;8.30;5.70;;;;;;;4.26;74.14;97630.60;105692;1304;22527;-80
2023/01/04 08:46:57;;;;;;;9.30;6.00;;;;;;;4.49;74.33;97624.95;105480;1306;23978;-80
2023/01/04 08:49:28;;;;;;;10.70;5.70;;;;;;;4.75;73.87;97624.85;105865;1288;22654;-80
2023/01/04 08:52:00;;;;;;;8.00;5.40;;;;;;;4.93;73.51;97627.23;105677;1286;22515;-81
2023/01/04 08:54:31;;;;;;;7.80;5.20;;;;;;;5.04;73.54;97636.77;105779;1296;22693;-80
2023/01/04 08:57:04;;;;;;;8.20;5.30;;;;;;;5.19;73.35;97641.27;105743;1288;43997;-80
2023/01/04 08:59:42;;;;;;;7.00;5.10;;;;;;;5.37;72.57;97643.60;105537;1290;22489;-81
2023/01/04 09:02:22;;;;;;;8.30;5.40;;;;;;;5.43;71.81;97642.11;105505;1294;23650;-81
2023/01/04 09:04:58;;;;;;;7.90;5.00;;;;;;;5.43;71.57;97643.65;105502;1296;24880;-81
2023/01/04 09:07:32;;;;;;;7.40;4.00;;;;;;;5.57;71.57;97640.20;105507;1285;22496;-81
2023/01/04 09:10:03;;;;;;;6.20;4.10;;;;;;;5.74;71.36;97632.07;105631;1304;23355;-81
2023/01/04 09:12:34;;;;;;;6.00;4.10;;;;;;;5.81;70.43;97634.62;105511;1290;22463;-82
2023/01/04 09:15:07;;;;;;;7.00;4.10;;;;;;;5.92;69.66;97627.33;105533;1305;25393;-81
2023/01/04 09:17:39;;;;;;;6.90;3.90;;;;;;;5.97;69.59;97623.79;105411;1304;49416;-82
2023/01/04 09:20:11;;;;;;;9.30;5.20;;;;;;;6.01;68.74;97623.52;105478;1296;22474;-81
2023/01/04 09:22:42;;;;;;;9.10;5.10;;;;;;;5.96;68.52;97618.39;105533;1293;25480;-81
2023/01/04 09:25:13;;;;;;;9.50;6.10;;;;;;;5.93;68.38;97615.27;105465;1294;24239;-81
2023/01/04 09:27:47;;;;;;;10.90;6.70;;;;;;;5.93;68.01;97615.54;105448;1294;22570;-81
2023/01/04 09:30:18;;;;;;;10.50;6.90;;;;;;;5.82;67.70;97601.54;105551;1292;24244;-81
2023/01/04 09:32:49;;;;;;;11.10;5.70;;;;;;;5.73;67.88;97596.86;105716;1292;22599;-82
2023/01/04 09:35:20;;;;;;;11.30;5.90;;;;;;;5.66;67.34;97590.94;105507;1288;22566;-81
2023/01/04 09:37:52;;;;;;;7.40;5.40;;;;;;;5.72;68.00;97586.41;105500;1288;22512;-81
2023/01/04 09:40:31;;;;;;;12.90;6.90;;;;;;;5.88;67.49;97579.11;105497;1297;22518;-81
2023/01/04 09:43:04;;;;;;;11.50;7.50;;;;;;;5.94;67.04;97567.92;105475;1305;22494;-81
2023/01/04 09:45:36;;;;;;;11.70;7.00;;;;;;;6.03;66.66;97564.38;105538;1304;22480;-81
2023/01/04 09:48:14;;;;;;;9.60;5.80;;;;;;;6.07;66.71;97557.20;105672;1284;43188;-82
2023/01/04 09:50:52;;;;;;;8.80;5.30;;;;;;;6.13;66.36;97554.87;105778;1295;22711;-82
2023/01/04 09:53:28;;;;;;;8.40;4.50;;;;;;;6.16;65.92;97552.66;105804;1302;22474;-82
2023/01/04 09:56:08;;;;;;;9.10;5.10;;;;;;;6.19;65.16;97542.79;105754;1292;22473;-82
2023/01/04 09:58:43;;;;;;;8.10;4.80;;;;;;;6.17;65.10;97541.89;105598;1303;37736;-82
2023/01/04 10:01:20;;;;;;;11.00;6.10;;;;;;;6.20;65.47;97535.20;105460;1304;22983;-82
2023/01/04 10:04:11;;;;;;;7.70;4.50;;;;;;;6.31;65.75;97528.42;105523;1277;22434;-81
2023/01/04 10:06:45;;;;;;;9.90;5.00;;;;;;;6.44;65.19;97516.04;105515;1299;22467;-82
2023/01/04 10:09:32;;;;;;;8.20;4.70;;;;;;;6.45;65.15;97509.73;105469;1302;56320;-82
2023/01/04 10:12:17;;;;;;;8.30;4.90;;;;;;;6.51;64.50;97499.23;105490;1282;22505;-81
2023/01/04 10:14:58;;;;;;;9.80;5.20;;;;;;;6.54;63.95;97491.87;105521;1304;22497;-83
2023/01/04 10:17:44;;;;;;;8.60;4.40;;;;;;;6.56;63.79;97484.10;105462;1296;31600;-83
2023/01/04 10:20:55;;;;;;;7.30;4.80;;;;;;;6.57;63.19;97481.08;105472;1280;22490;-82
2023/01/04 10:23:41;;;;;;;10.00;5.30;;;;;;;6.58;62.51;97475.09;105459;1281;22511;-83
2023/01/04 10:26:16;;;;;;;7.90;4.60;;;;;;;6.69;63.01;97466.52;105422;1280;22530;-83
2023/01/04 10:29:11;;;;;;;7.40;5.20;;;;;;;6.74;62.45;97467.41;105674;1286;70315;-85
2023/01/04 10:31:48;;;;;;;7.10;3.50;;;;;;;6.75;61.77;97458.46;105620;1278;22658;-83
2023/01/04 10:34:28;;;;;;;8.10;4.50;;;;;;;6.77;61.78;97455.09;105646;1286;24364;-82
2023/01/04 10:37:12;;;;;;;7.10;4.60;;;;;;;6.84;61.53;97439.73;105559;1285;92366;-81
2023/01/04 10:39:45;;;;;;;8.80;5.50;;;;;;;6.84;61.16;97436.85;105522;1274;25494;-82
2023/01/04 10:42:28;;;;;;;7.60;4.70;;;;;;;6.85;61.07;97434.96;105428;1281;22626;-81
2023/01/04 10:45:14;;;;;;;7.50;5.10;;;;;;;6.90;60.79;97435.85;105457;1288;24282;-81
2023/01/04 10:47:58;;;;;;;7.90;3.20;;;;;;;6.92;60.87;97431.79;105447;1285;36735;-81
2023/01/04 10:50:41;;;;;;;8.10;4.80;;;;;;;6.92;61.03;97427.99;105591;1285;22515;-81
2023/01/04 10:53:21;;;;;;;7.40;4.30;;;;;;;6.95;60.59;97421.23;105588;1279;22589;-81
2023/01/04 10:56:01;;;;;;;8.10;4.80;;;;;;;6.99;60.77;97404.27;105567;1280;22469;-81
2023/01/04 10:58:38;;;;;;;7.20;4.80;;;;;;;7.03;60.75;97397.77;105506;1302;89264;-81
2023/01/04 11:01:16;;;;;;;6.20;4.00;;;;;;;7.08;60.65;97392.18;105462;1302;24264;-82
2023/01/04 11:03:53;;;;;;;7.40;4.70;;;;;;;7.10;60.32;97390.85;105521;1288;22700;-82
2023/01/04 11:06:33;;;;;;;7.90;4.10;;;;;;;7.11;60.20;97389.06;105504;1305;22572;-84
2023/01/04 11:09:08;;;;;;;7.60;4.20;;;;;;;7.08;59.97;97381.32;105221;1304;204134;-82
2023/01/04 11:11:55;;;;;;;7.40;4.20;;;;;;;7.11;60.24;97379.83;105559;1304;22451;-82
2023/01/04 11:14:31;;;;;;;8.20;4.60;;;;;;;7.17;59.91;97373.22;105551;1305;23275;-82
2023/01/04 11:17:10;;;;;;;8.30;3.80;;;;;;;7.22;59.94;97368.69;105474;1305;69134;-81
2023/01/04 11:19:47;;;;;;;6.20;4.40;;;;;;;7.29;59.98;97365.09;105275;1286;24785;-79
2023/01/04 11:22:27;;;;;;;7.90;4.80;;;;;;;7.39;60.45;97356.36;105357;1295;22557;-78
2023/01/04 11:25:08;;;;;;;8.20;4.20;;;;;;;7.55;60.13;97355.36;105224;1288;24237;-79
2023/01/04 11:27:46;;;;;;;8.00;4.50;;;;;;;7.58;59.52;97346.48;105182;1303;78618;-79
2023/01/04 11:30:20;;;;;;;9.50;5.00;;;;;;;7.64;59.47;97338.09;105710;1286;25259;-80
2023/01/04 11:32:59;;;;;;;9.40;4.20;;;;;;;7.70;58.67;97325.49;105701;1286;24294;-80
2023/01/04 11:35:44;;;;;;;7.50;4.90;;;;;;;7.67;58.10;97315.48;105838;1303;22467;-79
2023/01/04 11:38:17;;;;;;;8.50;4.30;;;;;;;7.73;58.26;97298.36;105628;1302;54404;-80
2023/01/04 11:40:58;;;;;;;6.60;3.90;;;;;;;7.74;57.99;97296.53;105447;1296;22492;-80
2023/01/04 11:43:31;;;;;;;7.70;4.00;;;;;;;7.75;57.26;97287.48;105513;1287;22464;-81
2023/01/04 11:46:05;;;;;;;4.60;3.10;;;;;;;7.81;57.40;97279.98;105402;1291;22644;-81
2023/01/04 11:48:43;;;;;;;7.40;4.40;;;;;;;7.88;56.61;97275.79;105379;1305;76118;-79
2023/01/04 11:51:38;;;;;;;7.80;4.00;;;;;;;7.92;56.81;97267.89;105336;1284;22535;-80
2023/01/04 11:54:20;;;;;;;5.50;3.70;;;;;;;8.02;57.08;97267.65;105478;1287;22795;-80
2023/01/04 11:57:02;;;;;;;6.10;3.00;;;;;;;8.02;56.50;97253.59;105432;1297;22477;-80
2023/01/04 11:59:33;;;;;;;4.90;3.00;;;;;;;7.94;55.76;97257.35;105437;1281;22492;-79
2023/01/04 12:02:20;;;;;;;5.10;3.00;;;;;;;7.89;56.11;97251.28;105409;1296;22607;-80
2023/01/04 12:04:55;;;;;;;4.00;2.40;;;;;;;7.93;56.24;97242.93;105464;1288;22492;-80
2023/01/04 12:07:32;;;;;;;4.20;2.30;;;;;;;7.93;55.47;97234.27;105466;1288;24266;-80
2023/01/04 12:10:25;;;;;;;5.80;3.30;;;;;;;7.90;55.24;97236.72;105602;1281;22570;-80
2023/01/04 12:12:59;;;;;;;4.30;2.50;;;;;;;7.90;54.77;97231.80;105542;1281;23774;-80
2023/01/04 12:15:41;;;;;;;6.60;3.50;;;;;;;7.78;54.56;97228.75;105710;1288;22697;-81
2023/01/04 12:18:19;;;;;;;3.10;1.70;;;;;;;7.67;54.31;97222.16;105608;1302;36280;-80
2023/01/04 12:20:51;;;;;;;3.70;1.70;;;;;;;7.52;54.66;97233.05;105687;1287;22515;-81
2023/01/04 12:23:22;;;;;;;4.80;2.60;;;;;;;7.44;54.92;97221.74;105688;1284;23825;-80
2023/01/04 12:25:55;;;;;;;2.30;1.50;;;;;;;7.36;54.80;97224.75;105708;1278;22475;-82
2023/01/04 12:28:39;;;;;;;3.40;2.30;;;;;;;7.27;54.48;97217.54;105587;1287;57037;-80
2023/01/04 12:31:32;;;;;;;2.30;1.20;;;;;;;7.26;54.24;97216.20;105794;1295;22618;-81
2023/01/04 12:34:34;;;;;;;3.70;2.20;;;;;;;7.30;54.60;97222.18;105691;1286;22569;-81
2023/01/04 12:37:07;;;;;;;5.00;2.60;;;;;;;7.39;55.22;97223.77;105600;1302;81722;-80
2023/01/04 12:39:42;;;;;;;4.60;1.90;;;;;;;7.49;55.27;97218.23;105692;1281;22750;-81
2023/01/04 12:42:31;;;;;;;2.80;1.60;;;;;;;7.56;55.04;97220.64;105686;1279;22814;-81
2023/01/04 12:45:23;;;;;;;4.10;2.40;;;;;;;7.57;54.64;97210.15;105316;1294;22510;-80
2023/01/04 12:51:21;;;;;;;5.30;2.00;;;;;;;7.69;54.86;97192.94;105651;1302;22556;-80
2023/01/04 12:53:58;;;;;;;4.50;1.90;;;;;;;7.72;54.16;97186.27;105655;1302;22504;-80
2023/01/04 12:57:12;;;;;;;3.20;1.80;;;;;;;7.78;54.75;97188.52;105638;1303;22557;-80